Vernon, Alabama
Current Conditions -  °F | °C
As of 8:58 AM on Thursday 30 Oct 2014 (Local Time) from KCBM Reporting Station
Clear Clear  
Wind Chill: 49°   Ceiling: Unl
Heat Index: 49°   Visibility: 10mi
Dew Point: 47°   Wind: 2mph
Humidity: 92%   Direction: NA
Pressure: 30.17"   Gusts: NA
Location:  33.76°N, 88.11°W
Report Text: KCBM 301358Z AUTO VRB02KT 10SM CLR 10/08 A3017 RMK AO2 SLP220 T00970084 $
Loading
Personal Weather Stations






























Interactive Weather Map New forecast layout! Learn more

10-Day Weather Forecast

Advertisements
Track Severe Weather on mobile